createdAt,value
2023-02-17T00:00:42.962Z,24.80
2023-02-17T00:01:42.983Z,20.00
2023-02-17T00:02:42.993Z,20.80
2023-02-17T00:03:42.984Z,17.80
2023-02-17T00:04:42.909Z,22.40
2023-02-17T00:05:42.899Z,22.50
2023-02-17T00:06:42.913Z,20.30
2023-02-17T00:07:42.889Z,18.80
2023-02-17T00:08:42.860Z,20.60
2023-02-17T00:09:42.830Z,22.70
2023-02-17T00:10:42.830Z,22.30
2023-02-17T00:11:42.828Z,19.00
2023-02-17T00:12:42.810Z,23.60
2023-02-17T00:13:42.788Z,20.10
2023-02-17T00:14:42.772Z,21.40
2023-02-17T00:15:42.783Z,21.90
2023-02-17T00:16:42.761Z,21.20
2023-02-17T00:17:42.749Z,21.50
2023-02-17T00:18:42.724Z,23.10
2023-02-17T00:19:42.705Z,20.70
2023-02-17T00:20:42.693Z,19.10
2023-02-17T00:21:42.689Z,21.00
2023-02-17T00:22:42.673Z,15.30
2023-02-17T00:23:42.652Z,17.40
2023-02-17T00:24:42.648Z,19.00
2023-02-17T00:25:42.643Z,21.50
2023-02-17T00:26:42.633Z,20.00
2023-02-17T00:27:42.637Z,21.50
2023-02-17T00:28:42.594Z,18.30
2023-02-17T00:29:42.595Z,20.70
2023-02-17T00:30:42.564Z,19.40
2023-02-17T00:31:42.644Z,18.40
2023-02-17T00:32:42.546Z,19.50
2023-02-17T00:33:42.516Z,18.90
2023-02-17T00:34:42.528Z,18.60
2023-02-17T00:35:42.508Z,23.10
2023-02-17T00:36:42.518Z,18.90
2023-02-17T00:37:42.489Z,19.70
2023-02-17T00:38:42.460Z,21.90
2023-02-17T00:39:42.443Z,19.60
2023-02-17T00:40:42.436Z,19.40
2023-02-17T00:41:42.417Z,21.30
2023-02-17T00:42:42.421Z,25.10
2023-02-17T00:43:42.389Z,22.70
2023-02-17T00:44:42.378Z,18.70
2023-02-17T00:45:42.363Z,17.00
2023-02-17T00:46:42.383Z,16.50
2023-02-17T00:47:42.363Z,18.50
2023-02-17T00:48:42.367Z,20.20
2023-02-17T00:49:42.316Z,17.10
2023-02-17T00:50:42.313Z,18.60
2023-02-17T00:51:42.287Z,20.90
2023-02-17T00:52:42.282Z,19.00
2023-02-17T00:53:42.253Z,18.60
2023-02-17T00:54:42.240Z,20.50
2023-02-17T00:55:42.223Z,19.40
2023-02-17T00:56:42.250Z,17.00
2023-02-17T00:57:42.263Z,18.20
2023-02-17T00:58:42.227Z,17.40
2023-02-17T00:59:42.179Z,20.00
2023-02-17T01:00:42.183Z,16.80
2023-02-17T01:01:42.238Z,18.00
2023-02-17T01:02:42.192Z,17.60
2023-02-17T01:03:42.291Z,16.80
2023-02-17T01:04:42.140Z,18.20
2023-02-17T01:05:42.096Z,19.80
2023-02-17T01:06:42.099Z,18.80
2023-02-17T01:07:42.097Z,22.30
2023-02-17T01:08:42.068Z,17.40
2023-02-17T01:09:42.036Z,17.40
2023-02-17T01:10:42.030Z,20.30
2023-02-17T01:11:42.016Z,16.70
2023-02-17T01:12:42.016Z,18.80
2023-02-17T01:13:41.987Z,20.40
2023-02-17T01:14:41.979Z,19.80
2023-02-17T01:15:42.023Z,16.60
2023-02-17T01:16:41.960Z,19.20
2023-02-17T01:17:41.976Z,19.40
2023-02-17T01:18:41.931Z,22.20
2023-02-17T01:19:41.910Z,17.30
2023-02-17T01:20:41.920Z,19.10
2023-02-17T01:21:41.898Z,19.10
2023-02-17T01:22:41.906Z,19.10
2023-02-17T01:23:41.863Z,21.70
2023-02-17T01:24:41.856Z,17.60
2023-02-17T01:25:41.840Z,18.50
2023-02-17T01:26:41.838Z,17.30
2023-02-17T01:27:41.821Z,19.10
2023-02-17T01:28:41.807Z,18.80
2023-02-17T01:29:41.793Z,18.70
2023-02-17T01:30:41.833Z,18.90
2023-02-17T01:31:41.891Z,15.50
2023-02-17T01:32:41.763Z,18.10
2023-02-17T01:33:41.740Z,17.30
2023-02-17T01:34:41.724Z,15.10
2023-02-17T01:35:41.711Z,20.90
2023-02-17T01:36:41.690Z,19.30
2023-02-17T01:37:41.693Z,18.10
2023-02-17T01:38:41.675Z,19.00
2023-02-17T01:39:41.668Z,18.90
2023-02-17T01:40:41.637Z,20.30
2023-02-17T01:41:41.620Z,18.30
2023-02-17T01:42:41.619Z,15.50
2023-02-17T01:43:41.591Z,15.20
2023-02-17T01:44:41.582Z,15.00
2023-02-17T01:45:41.574Z,18.70
2023-02-17T01:46:41.594Z,18.60
2023-02-17T01:47:41.565Z,17.60
2023-02-17T01:48:41.526Z,15.90
2023-02-17T01:49:41.515Z,19.40
2023-02-17T01:50:41.497Z,16.80
2023-02-17T01:51:41.492Z,17.70
2023-02-17T01:52:41.480Z,17.50
2023-02-17T01:53:41.476Z,16.70
2023-02-17T01:54:41.440Z,18.10
2023-02-17T01:55:41.429Z,17.20
2023-02-17T01:56:41.423Z,18.00
2023-02-17T01:57:41.421Z,15.50
2023-02-17T01:58:41.392Z,18.90
2023-02-17T01:59:41.383Z,15.30
2023-02-17T02:00:41.354Z,16.30
2023-02-17T02:01:41.455Z,14.30
2023-02-17T02:02:41.428Z,15.30
2023-02-17T02:03:41.324Z,15.40
2023-02-17T02:04:41.308Z,17.10
2023-02-17T02:05:41.302Z,15.10
2023-02-17T02:06:41.269Z,15.70
2023-02-17T02:07:41.296Z,14.40
2023-02-17T02:09:51.814Z,13.90
2023-02-17T02:10:53.722Z,14.10
2023-02-17T02:11:51.041Z,15.50
2023-02-17T02:12:51.051Z,15.10
2023-02-17T02:13:51.016Z,16.30
2023-02-17T02:14:51.004Z,14.20
2023-02-17T02:15:50.996Z,15.40
2023-02-17T02:16:50.998Z,14.00
2023-02-17T02:17:50.979Z,13.40
2023-02-17T02:18:50.964Z,14.50
2023-02-17T02:19:50.934Z,11.90
2023-02-17T02:20:50.928Z,13.60
2023-02-17T02:21:50.918Z,14.50
2023-02-17T02:22:50.948Z,15.30
2023-02-17T02:23:50.879Z,13.50
2023-02-17T02:24:50.870Z,15.80
2023-02-17T02:25:50.874Z,16.00
2023-02-17T02:26:50.865Z,14.80
2023-02-17T02:27:50.860Z,14.20
2023-02-17T02:28:50.830Z,15.50
2023-02-17T02:29:50.822Z,13.00
2023-02-17T02:30:50.819Z,11.20
2023-02-17T02:31:50.832Z,13.20
2023-02-17T02:32:50.787Z,13.40
2023-02-17T02:33:50.770Z,12.60
2023-02-17T02:34:50.743Z,12.50
2023-02-17T02:35:50.729Z,14.10
2023-02-17T02:36:50.866Z,13.20
2023-02-17T02:37:50.732Z,13.80
2023-02-17T02:38:50.688Z,15.00
2023-02-17T02:39:50.672Z,13.40
2023-02-17T02:40:50.682Z,13.80
2023-02-17T02:41:50.644Z,13.10
2023-02-17T02:42:50.625Z,13.80
2023-02-17T02:43:50.631Z,14.20
2023-02-17T02:44:50.604Z,12.70
2023-02-17T02:45:50.683Z,14.40
2023-02-17T02:46:50.584Z,14.40
2023-02-17T02:47:50.567Z,12.30
2023-02-17T02:48:50.556Z,14.90
2023-02-17T02:49:50.532Z,14.70
2023-02-17T02:50:50.514Z,11.80
2023-02-17T02:51:50.504Z,16.40
2023-02-17T02:52:50.525Z,16.30
2023-02-17T02:53:50.488Z,13.80
2023-02-17T02:54:50.472Z,11.30
2023-02-17T02:55:50.453Z,12.30
2023-02-17T02:56:50.434Z,13.30
2023-02-17T02:57:50.423Z,15.30
2023-02-17T02:58:50.475Z,12.40
2023-02-17T02:59:50.397Z,17.70
2023-02-17T03:00:51.133Z,12.90
2023-02-17T03:01:50.401Z,13.50
2023-02-17T03:02:50.352Z,11.70
2023-02-17T03:03:50.431Z,12.90
2023-02-17T03:04:50.318Z,11.90
2023-02-17T03:05:50.325Z,11.10
2023-02-17T03:06:50.304Z,13.70
2023-02-17T03:07:50.295Z,10.50
2023-02-17T03:08:50.299Z,13.90
2023-02-17T03:09:50.277Z,12.50
2023-02-17T03:10:50.290Z,10.60
2023-02-17T03:11:50.229Z,11.10
2023-02-17T03:12:50.214Z,11.00
2023-02-17T03:13:50.218Z,11.80
2023-02-17T03:14:50.192Z,12.90
2023-02-17T03:15:50.176Z,11.90
2023-02-17T03:16:50.195Z,11.10
2023-02-17T03:17:50.160Z,14.00
2023-02-17T03:18:50.369Z,13.20
2023-02-17T03:19:50.131Z,14.10
2023-02-17T03:20:50.109Z,11.50
2023-02-17T03:21:50.105Z,11.00
2023-02-17T03:22:50.087Z,11.50
2023-02-17T03:23:50.065Z,12.00
2023-02-17T03:24:50.074Z,12.90
2023-02-17T03:25:50.053Z,10.70
2023-02-17T03:26:50.033Z,13.20
2023-02-17T03:27:50.014Z,13.80
2023-02-17T03:28:50.001Z,11.70
2023-02-17T03:29:50.002Z,13.40
2023-02-17T03:30:49.960Z,13.10
2023-02-17T03:31:50.079Z,14.10
2023-02-17T03:32:49.939Z,12.80
2023-02-17T03:33:49.944Z,13.30
2023-02-17T03:34:49.960Z,11.20
2023-02-17T03:35:49.920Z,11.40
2023-02-17T03:36:49.902Z,14.70
2023-02-17T03:37:49.881Z,12.90
2023-02-17T03:38:49.866Z,11.30
2023-02-17T03:39:49.891Z,11.20
2023-02-17T03:40:49.821Z,12.70
2023-02-17T03:41:49.828Z,13.60
2023-02-17T03:42:49.801Z,15.20
2023-02-17T03:43:49.780Z,12.80
2023-02-17T03:44:49.805Z,12.20
2023-02-17T03:45:49.798Z,12.20
2023-02-17T03:46:49.760Z,12.30
2023-02-17T03:47:49.770Z,13.30
2023-02-17T03:48:49.726Z,10.60
2023-02-17T03:49:49.739Z,14.90
2023-02-17T03:50:49.711Z,12.50
2023-02-17T03:51:49.695Z,11.20
2023-02-17T03:52:49.668Z,13.60
2023-02-17T03:53:49.678Z,12.30
2023-02-17T03:54:49.669Z,12.90
2023-02-17T03:55:49.644Z,13.80
2023-02-17T03:56:49.621Z,14.20
2023-02-17T03:57:49.597Z,14.20
2023-02-17T03:58:49.581Z,14.00
2023-02-17T03:59:49.588Z,14.00
2023-02-17T04:00:49.567Z,12.00
2023-02-17T04:01:49.540Z,14.60
2023-02-17T04:02:49.519Z,14.40
2023-02-17T04:03:49.538Z,13.50
2023-02-17T04:04:49.514Z,12.50
2023-02-17T04:05:49.492Z,12.80
2023-02-17T04:06:49.470Z,14.30
2023-02-17T04:07:49.459Z,12.30
2023-02-17T04:08:49.433Z,13.80
2023-02-17T04:09:49.472Z,13.30
2023-02-17T04:10:49.422Z,14.70
2023-02-17T04:11:49.410Z,15.60
2023-02-17T04:12:49.385Z,14.30
2023-02-17T04:13:49.386Z,14.10
2023-02-17T04:14:49.367Z,13.60
2023-02-17T04:15:49.361Z,14.00
2023-02-17T04:16:49.337Z,14.50
2023-02-17T04:17:49.355Z,13.10
2023-02-17T04:18:49.300Z,12.70
2023-02-17T04:19:49.321Z,13.40
2023-02-17T04:20:49.301Z,15.20
2023-02-17T04:21:49.272Z,13.00
2023-02-17T04:22:49.251Z,14.80
2023-02-17T04:23:49.254Z,12.00
2023-02-17T04:24:49.215Z,14.50
2023-02-17T04:25:49.238Z,14.20
2023-02-17T04:26:49.202Z,16.20
2023-02-17T04:27:49.222Z,13.00
2023-02-17T04:28:49.175Z,12.10
2023-02-17T04:29:49.152Z,13.70
2023-02-17T04:30:49.289Z,14.40
2023-02-17T04:31:49.277Z,12.90
2023-02-17T04:32:49.112Z,13.60
2023-02-17T04:33:49.104Z,14.20
2023-02-17T04:34:49.095Z,13.20
2023-02-17T04:35:49.085Z,13.40
2023-02-17T04:36:49.053Z,13.20
2023-02-17T04:37:49.060Z,12.20
2023-02-17T04:38:49.038Z,12.30
2023-02-17T04:39:49.021Z,12.80
2023-02-17T04:40:49.043Z,13.30
2023-02-17T04:41:48.984Z,13.50
2023-02-17T04:42:48.981Z,14.10
2023-02-17T04:43:48.973Z,13.80
2023-02-17T04:44:48.958Z,13.50
2023-02-17T04:45:49.019Z,14.70
2023-02-17T04:46:48.924Z,13.30
2023-02-17T04:47:48.907Z,13.90
2023-02-17T04:48:48.915Z,12.60
2023-02-17T04:49:48.888Z,14.00
2023-02-17T04:50:48.909Z,13.30
2023-02-17T04:51:48.863Z,11.80
2023-02-17T04:52:48.834Z,15.40
2023-02-17T04:53:48.834Z,12.80
2023-02-17T04:54:48.814Z,12.40
2023-02-17T04:55:48.828Z,11.80
2023-02-17T04:56:48.790Z,11.90
2023-02-17T04:57:48.781Z,14.10
2023-02-17T04:58:48.755Z,14.10
2023-02-17T04:59:48.749Z,12.50
2023-02-17T05:00:48.767Z,12.20
2023-02-17T05:01:48.723Z,13.40
2023-02-17T05:02:48.704Z,15.00
2023-02-17T05:03:48.710Z,13.20
2023-02-17T05:04:48.735Z,12.00
2023-02-17T05:05:48.679Z,12.90
2023-02-17T05:06:48.655Z,13.60
2023-02-17T05:07:48.638Z,13.20
2023-02-17T05:08:48.615Z,13.40
2023-02-17T05:09:48.623Z,14.40
2023-02-17T05:10:48.629Z,14.50
2023-02-17T05:11:48.596Z,13.30
2023-02-17T05:12:48.568Z,12.40
2023-02-17T05:13:48.558Z,11.60
2023-02-17T05:14:48.538Z,12.40
2023-02-17T05:15:48.531Z,14.60
2023-02-17T05:16:48.527Z,13.70
2023-02-17T05:17:48.513Z,14.50
2023-02-17T05:18:48.489Z,12.80
2023-02-17T05:19:48.486Z,13.20
2023-02-17T05:20:48.458Z,13.50
2023-02-17T05:21:48.457Z,12.70
2023-02-17T05:22:48.427Z,13.50
2023-02-17T05:23:48.415Z,14.30
2023-02-17T05:24:48.398Z,12.10
2023-02-17T05:25:48.416Z,11.30
2023-02-17T05:26:48.387Z,12.80
2023-02-17T05:27:48.380Z,12.20
2023-02-17T05:28:48.346Z,12.30
2023-02-17T05:29:48.328Z,11.70
2023-02-17T05:30:48.344Z,13.50
2023-02-17T05:31:48.421Z,13.40
2023-02-17T05:32:48.293Z,14.60
2023-02-17T05:33:48.269Z,12.30
2023-02-17T05:34:48.259Z,12.10
2023-02-17T05:35:48.268Z,11.50
2023-02-17T05:36:48.261Z,13.40
2023-02-17T05:37:48.226Z,12.30
2023-02-17T05:38:48.213Z,10.70
2023-02-17T05:39:48.217Z,11.20
2023-02-17T05:40:48.183Z,11.60
2023-02-17T05:41:48.204Z,10.60
2023-02-17T05:42:48.161Z,10.90
2023-02-17T05:43:48.171Z,10.50
2023-02-17T05:44:48.143Z,11.90
2023-02-17T05:45:48.147Z,13.10
2023-02-17T05:46:48.225Z,11.90
2023-02-17T05:47:48.091Z,9.30
2023-02-17T05:48:48.086Z,10.40
2023-02-17T05:49:48.061Z,10.20
2023-02-17T05:50:48.046Z,11.00
2023-02-17T05:51:48.127Z,10.50
2023-02-17T05:52:48.014Z,10.50
2023-02-17T05:53:48.004Z,10.60
2023-02-17T05:54:48.013Z,11.30
2023-02-17T05:55:48.852Z,10.00
2023-02-17T05:56:47.998Z,11.60
2023-02-17T05:57:47.954Z,10.70
2023-02-17T05:58:47.936Z,10.20
2023-02-17T05:59:47.940Z,9.80
2023-02-17T06:00:47.991Z,11.00
2023-02-17T06:01:47.939Z,11.40
2023-02-17T06:02:47.901Z,10.10
2023-02-17T06:03:47.882Z,9.60
2023-02-17T06:04:47.936Z,10.60
2023-02-17T06:05:47.844Z,9.20
2023-02-17T06:06:47.898Z,11.20
2023-02-17T06:07:47.820Z,13.10
2023-02-17T06:08:47.790Z,13.30
2023-02-17T06:09:47.794Z,9.70
2023-02-17T06:10:47.809Z,11.70
2023-02-17T06:11:47.762Z,10.70
2023-02-17T06:12:47.781Z,13.70
2023-02-17T06:13:47.738Z,17.70
2023-02-17T06:14:47.708Z,10.50
2023-02-17T06:15:47.780Z,11.00
2023-02-17T06:16:47.700Z,13.20
2023-02-17T06:17:47.694Z,9.70
2023-02-17T06:18:47.674Z,10.70
2023-02-17T06:19:47.667Z,10.10
2023-02-17T06:20:47.631Z,9.90
2023-02-17T06:21:47.634Z,10.50
2023-02-17T06:22:47.649Z,12.60
2023-02-17T06:23:47.619Z,10.40
2023-02-17T06:24:47.612Z,9.90
2023-02-17T06:25:47.573Z,11.30
2023-02-17T06:26:47.547Z,10.20
2023-02-17T06:27:47.588Z,11.60
2023-02-17T06:28:47.524Z,11.10
2023-02-17T06:29:47.525Z,11.30
2023-02-17T06:30:47.519Z,11.40
2023-02-17T06:31:47.628Z,11.30
2023-02-17T06:32:47.491Z,10.90
2023-02-17T06:33:47.457Z,13.80
2023-02-17T06:34:47.436Z,11.00
2023-02-17T06:35:47.429Z,12.20
2023-02-17T06:36:47.445Z,10.60
2023-02-17T06:37:47.418Z,11.20
2023-02-17T06:38:47.383Z,12.80
2023-02-17T06:39:47.380Z,12.10
2023-02-17T06:40:47.352Z,13.40
2023-02-17T06:41:47.392Z,12.70
2023-02-17T06:42:47.350Z,12.70
2023-02-17T06:43:47.322Z,14.20
2023-02-17T06:44:47.301Z,14.70
2023-02-17T06:45:47.352Z,10.60
2023-02-17T06:46:47.276Z,14.80
2023-02-17T06:47:47.279Z,11.30
2023-02-17T06:48:47.240Z,12.40
2023-02-17T06:49:47.229Z,12.10
2023-02-17T06:50:47.212Z,11.90
2023-02-17T06:51:47.240Z,12.10
2023-02-17T06:52:47.214Z,10.80
2023-02-17T06:53:47.181Z,12.60
2023-02-17T06:54:47.185Z,11.40
2023-02-17T06:55:47.144Z,14.80
2023-02-17T06:56:47.159Z,12.90
2023-02-17T06:57:47.131Z,13.90
2023-02-17T06:58:47.111Z,11.20
2023-02-17T06:59:47.137Z,10.90
2023-02-17T07:00:47.091Z,10.90
2023-02-17T07:01:47.119Z,10.90
2023-02-17T07:02:47.180Z,10.80
2023-02-17T07:03:47.063Z,11.90
2023-02-17T07:04:47.026Z,10.40
2023-02-17T07:05:47.005Z,12.70
2023-02-17T07:06:47.005Z,10.80
2023-02-17T07:07:47.000Z,9.80
2023-02-17T07:08:47.010Z,13.70
2023-02-17T07:09:46.967Z,11.40
2023-02-17T07:10:46.966Z,14.30
2023-02-17T07:11:46.926Z,10.60
2023-02-17T07:12:46.940Z,12.10
2023-02-17T07:13:46.899Z,10.50
2023-02-17T07:14:46.899Z,11.00
2023-02-17T07:15:46.899Z,11.10
2023-02-17T07:16:46.899Z,10.80
2023-02-17T07:17:46.856Z,11.30
2023-02-17T07:18:46.838Z,11.90
2023-02-17T07:19:46.820Z,12.90
2023-02-17T07:20:46.830Z,14.20
2023-02-17T07:21:46.800Z,10.50
2023-02-17T07:22:46.899Z,10.60
2023-02-17T07:23:46.770Z,10.10
2023-02-17T07:24:46.762Z,11.20
2023-02-17T07:25:46.741Z,11.10
2023-02-17T07:26:46.792Z,11.20
2023-02-17T07:27:46.710Z,14.00
2023-02-17T07:28:46.727Z,10.80
2023-02-17T07:29:46.709Z,11.40
2023-02-17T07:30:46.713Z,10.90
2023-02-17T07:31:46.741Z,12.00
2023-02-17T07:32:46.654Z,9.90
2023-02-17T07:33:46.653Z,11.60
2023-02-17T07:34:46.621Z,12.90
2023-02-17T07:35:46.599Z,10.20
2023-02-17T07:36:46.591Z,11.70
2023-02-17T07:37:46.592Z,11.60
2023-02-17T07:38:46.588Z,9.60
2023-02-17T07:39:46.540Z,11.90
2023-02-17T07:40:46.552Z,11.60
2023-02-17T07:41:46.604Z,11.50
2023-02-17T07:42:46.513Z,10.00
2023-02-17T07:43:46.524Z,10.90
2023-02-17T07:44:46.478Z,9.50
2023-02-17T07:45:46.493Z,10.90
2023-02-17T07:46:46.449Z,10.30
2023-02-17T07:47:46.420Z,14.20
2023-02-17T07:48:46.445Z,12.90
2023-02-17T07:49:46.413Z,11.70
2023-02-17T07:50:46.390Z,10.40
2023-02-17T07:51:46.385Z,10.40
2023-02-17T07:52:46.382Z,10.50
2023-02-17T07:53:46.391Z,10.10
2023-02-17T07:54:46.343Z,10.30
2023-02-17T07:55:46.321Z,11.00
2023-02-17T07:56:46.344Z,11.10
2023-02-17T07:57:46.309Z,13.60
2023-02-17T07:58:46.332Z,10.70
2023-02-17T07:59:46.274Z,14.50
2023-02-17T08:00:46.253Z,9.90
2023-02-17T08:01:46.327Z,12.00
2023-02-17T08:02:46.230Z,10.40
2023-02-17T08:03:46.229Z,10.80
2023-02-17T08:04:46.210Z,10.60
2023-02-17T08:05:48.163Z,13.50
2023-02-17T08:06:46.171Z,11.90
2023-02-17T08:07:46.158Z,11.60
2023-02-17T08:08:46.220Z,10.40
2023-02-17T08:09:53.148Z,11.20
2023-02-17T08:10:46.113Z,11.20
2023-02-17T08:11:48.209Z,10.90
2023-02-17T08:12:46.089Z,11.10
2023-02-17T08:13:46.092Z,13.00
2023-02-17T08:14:46.051Z,10.30
2023-02-17T08:15:46.049Z,10.30
2023-02-17T08:16:46.200Z,11.20
2023-02-17T08:17:46.011Z,11.00
2023-02-17T08:18:46.010Z,10.10
2023-02-17T08:19:49.062Z,9.80
2023-02-17T08:20:45.982Z,9.60
2023-02-17T08:21:45.953Z,9.90
2023-02-17T08:22:45.960Z,11.10
2023-02-17T08:23:45.950Z,9.70
2023-02-17T08:24:45.931Z,13.60
2023-02-17T08:25:45.904Z,11.20
2023-02-17T08:26:45.925Z,10.90
2023-02-17T08:27:45.884Z,10.80
2023-02-17T08:28:45.894Z,11.80
2023-02-17T08:29:45.844Z,11.70
2023-02-17T08:30:45.940Z,11.10
2023-02-17T08:31:45.902Z,12.30
2023-02-17T08:32:45.823Z,10.90
2023-02-17T08:33:45.792Z,11.60
2023-02-17T08:34:45.799Z,15.00
2023-02-17T08:35:45.783Z,10.00
2023-02-17T08:36:45.761Z,8.80
2023-02-17T08:37:45.748Z,11.50
2023-02-17T08:38:45.733Z,12.20
2023-02-17T08:39:45.775Z,9.90
2023-02-17T08:40:45.731Z,11.40
2023-02-17T08:41:45.678Z,14.80
2023-02-17T08:42:45.720Z,11.70
2023-02-17T08:43:45.683Z,11.90
2023-02-17T08:44:45.665Z,12.00
2023-02-17T08:45:45.636Z,10.20
2023-02-17T08:46:45.700Z,13.90
2023-02-17T08:47:45.626Z,9.90
2023-02-17T08:48:45.592Z,11.40
2023-02-17T08:49:45.595Z,12.90
2023-02-17T08:50:45.563Z,9.80
2023-02-17T08:51:45.624Z,12.00
2023-02-17T08:52:45.540Z,9.10
2023-02-17T08:53:45.517Z,9.80
2023-02-17T08:54:45.526Z,13.20
2023-02-17T08:55:49.480Z,12.40
2023-02-17T08:56:45.484Z,11.00
2023-02-17T08:57:45.472Z,10.10
2023-02-17T08:58:45.463Z,10.80
2023-02-17T08:59:45.460Z,13.90
2023-02-17T09:00:45.438Z,10.00
2023-02-17T09:01:45.433Z,10.10
2023-02-17T09:02:45.401Z,10.00
2023-02-17T09:03:45.438Z,10.00
2023-02-17T09:04:45.446Z,10.00
2023-02-17T09:05:45.384Z,12.30
2023-02-17T09:06:45.346Z,8.60
2023-02-17T09:07:45.326Z,10.30
2023-02-17T09:08:45.337Z,13.50
2023-02-17T09:09:45.307Z,11.40
2023-02-17T09:10:45.368Z,8.80
2023-02-17T09:11:45.311Z,11.10
2023-02-17T09:12:45.331Z,9.50
2023-02-17T09:13:45.291Z,10.30
2023-02-17T09:14:45.256Z,10.00
2023-02-17T09:15:45.266Z,9.20
2023-02-17T09:16:45.250Z,10.70
2023-02-17T09:17:45.194Z,8.90
2023-02-17T09:18:45.190Z,9.20
2023-02-17T09:19:45.193Z,9.10
2023-02-17T09:20:45.195Z,9.80
2023-02-17T09:21:45.156Z,10.30
2023-02-17T09:22:45.131Z,9.70
2023-02-17T09:23:45.116Z,9.40
2023-02-17T09:24:45.195Z,9.60
2023-02-17T09:25:45.081Z,9.80
2023-02-17T09:26:45.074Z,8.90
2023-02-17T09:27:45.073Z,12.30
2023-02-17T09:28:45.078Z,8.50
2023-02-17T09:29:45.136Z,13.80
2023-02-17T09:30:45.107Z,8.90
2023-02-17T09:31:45.134Z,7.90
2023-02-17T09:32:44.996Z,10.10
2023-02-17T09:33:44.982Z,9.90
2023-02-17T09:34:45.035Z,9.00
2023-02-17T09:35:44.976Z,8.50
2023-02-17T09:36:44.948Z,8.10
2023-02-17T09:37:45.027Z,8.00
2023-02-17T09:38:44.941Z,9.60
2023-02-17T09:39:44.916Z,8.50
2023-02-17T09:40:44.904Z,10.40
2023-02-17T09:41:44.872Z,7.60
2023-02-17T09:42:44.858Z,7.90
2023-02-17T09:43:44.883Z,10.00
2023-02-17T09:44:44.864Z,8.60
2023-02-17T09:45:44.829Z,8.50
2023-02-17T09:46:56.042Z,9.30
2023-02-17T09:47:45.851Z,9.10
2023-02-17T09:48:44.779Z,8.40
2023-02-17T09:49:44.766Z,8.40
2023-02-17T09:50:44.797Z,7.60
2023-02-17T09:51:44.731Z,10.60
2023-02-17T09:52:44.740Z,8.30
2023-02-17T09:53:44.797Z,9.30
2023-02-17T09:54:44.699Z,7.60
2023-02-17T09:55:44.744Z,11.90
2023-02-17T09:56:44.677Z,8.40
2023-02-17T09:57:44.669Z,7.80
2023-02-17T09:58:44.652Z,7.80
2023-02-17T09:59:44.638Z,7.50
2023-02-17T10:00:44.700Z,7.50
2023-02-17T10:01:44.609Z,7.50
2023-02-17T10:02:44.617Z,7.80
2023-02-17T10:03:44.706Z,8.90
2023-02-17T10:04:44.604Z,9.50
2023-02-17T10:05:44.626Z,7.40
2023-02-17T10:06:44.553Z,9.40
2023-02-17T10:07:44.570Z,7.20
2023-02-17T10:08:44.527Z,7.90
2023-02-17T10:09:44.588Z,8.50
2023-02-17T10:10:44.486Z,7.90
2023-02-17T10:11:44.511Z,8.70
2023-02-17T10:12:44.512Z,7.60
2023-02-17T10:13:44.428Z,7.80
2023-02-17T10:14:44.509Z,5.60
2023-02-17T10:15:44.501Z,10.80
2023-02-17T10:16:44.485Z,7.40
2023-02-17T10:17:44.420Z,7.80
2023-02-17T10:18:44.397Z,7.30
2023-02-17T10:19:44.435Z,6.90
2023-02-17T10:20:44.442Z,7.60
2023-02-17T10:21:44.318Z,8.80
2023-02-17T10:22:44.448Z,6.90
2023-02-17T10:23:44.292Z,8.20
2023-02-17T10:24:44.311Z,7.20
2023-02-17T10:25:44.287Z,7.00
2023-02-17T10:26:45.298Z,7.50
2023-02-17T10:27:44.291Z,7.40
2023-02-17T10:28:44.258Z,7.30
2023-02-17T10:29:44.233Z,7.00
2023-02-17T10:30:44.299Z,6.90
2023-02-17T10:31:44.294Z,9.00
2023-02-17T10:32:44.336Z,7.80
2023-02-17T10:33:44.160Z,6.80
2023-02-17T10:34:44.173Z,6.90
2023-02-17T10:35:44.216Z,12.40
2023-02-17T10:36:44.123Z,6.70
2023-02-17T10:37:44.102Z,6.80
2023-02-17T10:38:44.092Z,6.20
2023-02-17T10:39:44.075Z,6.80
2023-02-17T10:40:44.071Z,7.70
2023-02-17T10:41:44.041Z,7.00
2023-02-17T10:42:44.036Z,7.30
2023-02-17T10:43:44.021Z,9.30
2023-02-17T10:44:44.015Z,6.70
2023-02-17T10:45:44.016Z,8.30
2023-02-17T10:46:44.132Z,5.90
2023-02-17T10:47:43.962Z,7.80
2023-02-17T10:48:43.955Z,7.30
2023-02-17T10:49:43.940Z,7.10
2023-02-17T10:50:43.927Z,8.30
2023-02-17T10:51:43.921Z,6.60
2023-02-17T10:52:43.903Z,6.90
2023-02-17T10:53:43.876Z,8.90
2023-02-17T10:54:43.877Z,7.30
2023-02-17T10:55:43.855Z,6.60
2023-02-17T10:56:43.903Z,8.20
2023-02-17T10:57:43.824Z,8.00
2023-02-17T10:58:43.827Z,8.00
2023-02-17T10:59:43.825Z,7.00
2023-02-17T11:00:43.861Z,9.10
2023-02-17T11:01:43.807Z,7.60
2023-02-17T11:02:43.764Z,7.90
2023-02-17T11:03:43.815Z,7.90
2023-02-17T11:04:43.769Z,8.20
2023-02-17T11:05:43.745Z,6.80
2023-02-17T11:06:43.724Z,7.50
2023-02-17T11:07:43.717Z,8.50
2023-02-17T11:08:43.679Z,6.90
2023-02-17T11:09:43.670Z,6.40
2023-02-17T11:10:43.700Z,7.80
2023-02-17T11:11:43.680Z,6.60
2023-02-17T11:12:43.631Z,8.40
2023-02-17T11:13:43.626Z,10.40
2023-02-17T11:14:43.615Z,9.20
2023-02-17T11:15:43.590Z,7.50
2023-02-17T11:16:43.619Z,7.70
2023-02-17T11:17:43.573Z,6.90
2023-02-17T11:18:43.552Z,6.30
2023-02-17T11:19:43.542Z,8.90
2023-02-17T11:20:43.533Z,7.00
2023-02-17T11:21:43.531Z,9.30
2023-02-17T11:22:43.483Z,9.40
2023-02-17T11:23:43.483Z,7.30
2023-02-17T11:24:43.463Z,7.00
2023-02-17T11:25:43.461Z,8.70
2023-02-17T11:26:43.458Z,7.00
2023-02-17T11:27:43.423Z,10.00
2023-02-17T11:28:43.411Z,6.90
2023-02-17T11:29:43.403Z,8.10
2023-02-17T11:30:43.387Z,7.20
2023-02-17T11:31:43.505Z,7.10
2023-02-17T11:32:43.362Z,6.40
2023-02-17T11:33:43.344Z,7.40
2023-02-17T11:34:43.333Z,6.30
2023-02-17T11:35:43.317Z,6.00
2023-02-17T11:36:43.317Z,7.50
2023-02-17T11:37:43.301Z,6.60
2023-02-17T11:38:43.279Z,6.60
2023-02-17T11:39:43.278Z,9.30
2023-02-17T11:40:43.248Z,5.70
2023-02-17T11:41:43.260Z,6.10
2023-02-17T11:42:43.234Z,8.90
2023-02-17T11:43:43.218Z,5.90
2023-02-17T11:44:43.208Z,6.40
2023-02-17T11:45:43.212Z,8.00
2023-02-17T11:46:43.181Z,7.60
2023-02-17T11:47:43.162Z,10.70
2023-02-17T11:48:43.146Z,5.40
2023-02-17T11:49:43.136Z,7.60
2023-02-17T11:50:43.130Z,6.40
2023-02-17T11:51:43.153Z,5.20
2023-02-17T11:52:43.088Z,5.50
2023-02-17T11:53:43.086Z,8.00
2023-02-17T11:54:43.065Z,9.90
2023-02-17T11:55:43.054Z,6.20
2023-02-17T11:56:43.032Z,4.80
2023-02-17T11:57:45.384Z,5.50
2023-02-17T11:58:43.004Z,6.60
2023-02-17T11:59:43.003Z,6.50
2023-02-17T12:00:42.975Z,8.20
2023-02-17T12:01:42.970Z,6.20
2023-02-17T12:02:42.961Z,5.60
2023-02-17T12:03:42.952Z,4.80
2023-02-17T12:04:42.954Z,8.00
2023-02-17T12:05:42.916Z,6.30
2023-02-17T12:06:42.891Z,7.00
2023-02-17T12:07:42.918Z,5.90
2023-02-17T12:08:42.883Z,8.00
2023-02-17T12:09:42.860Z,6.20
2023-02-17T12:10:42.844Z,6.60
2023-02-17T12:11:42.829Z,6.80
2023-02-17T12:12:42.824Z,6.10
2023-02-17T12:13:42.800Z,5.70
2023-02-17T12:14:42.790Z,4.90
2023-02-17T12:15:42.771Z,5.20
2023-02-17T12:16:42.809Z,7.50
2023-02-17T12:17:42.763Z,6.70
2023-02-17T12:18:42.734Z,6.00
2023-02-17T12:19:42.714Z,4.70
2023-02-17T12:20:42.706Z,6.10
2023-02-17T12:21:42.714Z,5.10
2023-02-17T12:22:42.713Z,5.30
2023-02-17T12:23:42.666Z,6.10
2023-02-17T12:24:42.646Z,4.90
2023-02-17T12:25:42.632Z,5.50
2023-02-17T12:26:42.632Z,5.00
2023-02-17T12:27:42.633Z,5.60
2023-02-17T12:28:42.596Z,7.00
2023-02-17T12:29:42.586Z,4.90
2023-02-17T12:30:42.626Z,8.80
2023-02-17T12:31:42.705Z,8.70
2023-02-17T12:32:42.555Z,4.60
2023-02-17T12:33:42.536Z,5.90
2023-02-17T12:34:42.515Z,4.90
2023-02-17T12:35:42.504Z,6.40
2023-02-17T12:36:42.485Z,6.40
2023-02-17T12:37:42.496Z,4.50
2023-02-17T12:38:42.510Z,6.10
2023-02-17T12:39:42.461Z,5.00
2023-02-17T12:40:42.426Z,6.20
2023-02-17T12:41:42.426Z,5.70
2023-02-17T12:42:42.416Z,4.80
2023-02-17T12:43:42.428Z,4.80
2023-02-17T12:44:42.381Z,5.70
2023-02-17T12:45:42.401Z,5.90
2023-02-17T12:46:42.348Z,6.00
2023-02-17T12:47:42.349Z,6.00
2023-02-17T12:48:42.341Z,5.20
2023-02-17T12:49:42.328Z,4.90
2023-02-17T12:50:42.304Z,6.70
2023-02-17T12:51:42.294Z,6.90
2023-02-17T12:52:42.276Z,4.40
2023-02-17T12:53:42.283Z,5.20
2023-02-17T12:54:42.247Z,4.10
2023-02-17T12:55:42.229Z,5.30
2023-02-17T12:56:42.249Z,6.10
2023-02-17T12:57:42.210Z,8.30
2023-02-17T12:58:42.210Z,7.50
2023-02-17T12:59:42.181Z,4.90
2023-02-17T13:00:42.164Z,7.20
2023-02-17T13:01:42.241Z,4.80